Time;durP1;ratioP1;P1;durP2;ratioP2;P2;SDS_P1;SDS_P2;PMS_P1;PMS_P2;Temp;Humidity;BMP_temperature;BMP_pressure;BME280_temperature;BME280_humidity;BME280_pressure;Samples;Min_cycle;Max_cycle;Signal;HPM_P1;HPM_P2
2022/03/22 00:00:11;;;;;;;12.55;9.18;;;5.50;52.70;;;;;;5019491;28;20122;-77
2022/03/22 00:02:38;;;;;;;12.35;8.43;;;5.60;52.20;;;;;;5028622;28;20072;-76
2022/03/22 00:05:06;;;;;;;12.90;8.65;;;5.80;51.40;;;;;;5031194;28;20072;-73
2022/03/22 00:07:33;;;;;;;11.20;7.57;;;5.90;50.60;;;;;;5031369;28;20069;-75
2022/03/22 00:10:00;;;;;;;10.60;7.90;;;5.90;50.40;;;;;;5031170;28;20052;-77
2022/03/22 00:12:28;;;;;;;14.57;8.18;;;5.90;50.30;;;;;;5031674;28;20120;-77
2022/03/22 00:14:56;;;;;;;12.45;7.82;;;5.90;50.10;;;;;;5031281;28;20072;-75
2022/03/22 00:17:44;;;;;;;11.32;8.23;;;6.10;49.40;;;;;;5020921;28;20409;-76
2022/03/22 00:20:11;;;;;;;12.05;7.43;;;6.20;49.10;;;;;;5017885;28;20129;-76
2022/03/22 00:22:40;;;;;;;10.73;7.25;;;6.10;49.60;;;;;;5025409;28;20047;-77
2022/03/22 00:25:09;;;;;;;12.02;8.35;;;6.10;49.40;;;;;;5007363;28;20494;-77
2022/03/22 00:28:01;;;;;;;9.70;7.70;;;6.10;49.70;;;;;;5014144;28;20060;-78
2022/03/22 00:30:30;;;;;;;11.43;7.68;;;6.10;49.50;;;;;;5031107;28;20128;-78
2022/03/22 00:33:00;;;;;;;9.77;8.00;;;6.10;49.40;;;;;;5031276;28;20041;-76
2022/03/22 00:35:30;;;;;;;12.52;8.35;;;6.20;49.10;;;;;;5030934;28;20091;-77
2022/03/22 00:37:59;;;;;;;10.70;7.80;;;6.30;49.00;;;;;;5031294;28;20045;-77
2022/03/22 00:40:28;;;;;;;12.57;8.38;;;6.30;48.60;;;;;;5031461;28;20586;-78
2022/03/22 00:42:55;;;;;;;12.30;8.90;;;6.30;48.60;;;;;;5031908;28;20092;-79
2022/03/22 00:45:28;;;;;;;11.45;7.80;;;6.30;48.60;;;;;;5031087;28;20041;-76
2022/03/22 00:47:57;;;;;;;11.52;8.00;;;6.40;48.60;;;;;;5031312;28;20396;-76
2022/03/22 00:50:33;;;;;;;12.98;8.50;;;6.30;48.70;;;;;;5011051;28;20077;-75
2022/03/22 00:53:02;;;;;;;13.60;8.45;;;6.40;49.30;;;;;;5012632;28;20068;-76
2022/03/22 00:55:30;;;;;;;15.13;10.15;;;6.30;49.20;;;;;;5040234;28;20068;-76
2022/03/22 00:57:57;;;;;;;15.48;10.93;;;6.20;51.10;;;;;;5033831;28;20079;-75
2022/03/22 01:00:26;;;;;;;15.57;9.30;;;5.80;53.40;;;;;;5054387;28;20464;-75
2022/03/22 01:02:56;;;;;;;12.05;8.30;;;5.70;52.80;;;;;;5036181;28;20083;-77
2022/03/22 01:05:25;;;;;;;15.82;8.93;;;5.90;51.50;;;;;;5036301;28;20505;-75
2022/03/22 01:07:56;;;;;;;10.60;8.45;;;6.10;50.60;;;;;;5054410;28;20491;-78
2022/03/22 01:10:25;;;;;;;11.27;7.80;;;5.90;50.80;;;;;;5035310;28;20469;-77
2022/03/22 01:12:53;;;;;;;11.48;7.85;;;6.10;50.20;;;;;;5016861;28;20047;-79
2022/03/22 01:15:28;;;;;;;14.43;8.43;;;6.30;49.60;;;;;;5034051;28;20460;-77
2022/03/22 01:17:55;;;;;;;12.63;8.50;;;6.50;49.30;;;;;;5033907;28;20389;-77
2022/03/22 01:20:26;;;;;;;12.75;8.48;;;6.50;48.70;;;;;;5033833;28;20123;-76
2022/03/22 01:22:54;;;;;;;14.77;9.20;;;6.50;48.80;;;;;;5033251;28;20405;-77
2022/03/22 01:25:25;;;;;;;11.18;8.63;;;6.40;48.90;;;;;;5036215;28;20128;-77
2022/03/22 01:27:53;;;;;;;13.10;8.50;;;6.50;48.80;;;;;;5044534;28;20033;-76
2022/03/22 01:30:23;;;;;;;14.38;8.93;;;6.60;48.80;;;;;;5041687;28;20052;-77
2022/03/22 01:32:52;;;;;;;12.25;8.50;;;6.50;48.70;;;;;;5054128;28;20136;-76
2022/03/22 01:35:23;;;;;;;13.13;7.85;;;6.60;48.60;;;;;;5054059;28;20048;-78
2022/03/22 01:37:52;;;;;;;11.27;7.85;;;6.50;48.70;;;;;;5054368;28;20168;-77
2022/03/22 01:40:22;;;;;;;13.80;8.43;;;6.50;48.80;;;;;;5054138;28;20049;-76
2022/03/22 01:42:49;;;;;;;12.27;8.25;;;6.50;49.00;;;;;;5054080;28;20043;-76
2022/03/22 01:45:17;;;;;;;12.77;8.35;;;6.50;49.10;;;;;;5053597;28;20116;-77
2022/03/22 01:47:46;;;;;;;11.32;8.38;;;6.50;49.30;;;;;;5036628;28;20072;-78
2022/03/22 01:50:16;;;;;;;15.68;8.65;;;6.50;50.80;;;;;;5053789;28;20488;-78
2022/03/22 01:52:44;;;;;;;13.60;9.30;;;6.30;52.20;;;;;;5054385;28;20037;-77
2022/03/22 01:55:17;;;;;;;13.98;8.75;;;6.30;52.00;;;;;;5043053;28;20238;-78
2022/03/22 01:57:45;;;;;;;16.40;11.00;;;6.20;52.60;;;;;;5045666;28;20052;-78
2022/03/22 02:00:15;;;;;;;12.70;8.68;;;6.10;53.10;;;;;;5044115;28;20469;-78
2022/03/22 02:05:54;;;;;;;14.13;9.68;;;6.20;51.20;;;;;;5040335;28;20044;-76
2022/03/22 02:08:24;;;;;;;;;;;6.20;52.20;;;;;;5053833;28;20045;-74
2022/03/22 02:10:52;;;;;;;14.85;10.05;;;5.90;54.30;;;;;;5033279;28;19921;-76
2022/03/22 02:13:20;;;;;;;15.50;10.23;;;5.60;55.80;;;;;;5033312;28;20048;-77
2022/03/22 02:15:52;;;;;;;17.17;9.73;;;5.40;56.20;;;;;;5033461;28;20144;-77
2022/03/22 02:18:19;;;;;;;14.07;10.20;;;4.80;57.20;;;;;;5033488;28;20061;-76
2022/03/22 02:20:47;;;;;;;23.48;11.50;;;4.80;57.10;;;;;;5033118;28;20111;-77
2022/03/22 02:23:34;;;;;;;15.43;10.63;;;5.10;56.90;;;;;;5033611;28;20056;-77
2022/03/22 02:26:01;;;;;;;22.80;9.68;;;5.30;55.80;;;;;;5040369;28;20366;-75
2022/03/22 02:28:29;;;;;;;13.63;8.95;;;5.60;53.80;;;;;;5053696;28;20120;-75
2022/03/22 02:30:56;;;;;;;12.82;8.77;;;5.60;53.30;;;;;;5053461;28;20041;-76
2022/03/22 02:33:24;;;;;;;14.15;8.05;;;5.80;52.70;;;;;;5053713;28;20041;-78
2022/03/22 02:35:51;;;;;;;12.23;8.80;;;5.90;52.10;;;;;;5053082;28;20045;-77
2022/03/22 02:38:19;;;;;;;15.60;8.50;;;6.00;51.90;;;;;;5053282;28;20056;-78
2022/03/22 02:40:46;;;;;;;14.55;8.15;;;5.90;51.70;;;;;;5053005;28;20037;-77
2022/03/22 02:43:14;;;;;;;14.05;9.20;;;6.10;51.40;;;;;;5051261;28;20045;-76
2022/03/22 02:45:41;;;;;;;17.98;9.15;;;6.10;52.80;;;;;;5032110;28;20450;-77
2022/03/22 02:48:11;;;;;;;13.02;8.77;;;6.20;52.20;;;;;;5026995;28;20155;-78
2022/03/22 02:50:39;;;;;;;11.13;8.82;;;6.10;51.40;;;;;;5032889;28;20053;-77
2022/03/22 02:53:06;;;;;;;13.82;8.85;;;6.10;51.40;;;;;;5033033;28;20460;-77
2022/03/22 02:55:33;;;;;;;13.77;8.00;;;6.00;51.40;;;;;;5038202;28;20547;-78
2022/03/22 02:58:01;;;;;;;13.10;8.40;;;6.10;51.30;;;;;;5045300;28;20045;-77
2022/03/22 03:00:28;;;;;;;12.60;8.43;;;6.10;51.00;;;;;;5018639;28;20469;-77
2022/03/22 03:02:56;;;;;;;20.67;9.45;;;6.10;51.00;;;;;;5052409;28;20404;-78
2022/03/22 03:05:23;;;;;;;13.65;8.70;;;6.00;51.20;;;;;;5052315;28;20037;-76
2022/03/22 03:07:51;;;;;;;16.73;11.18;;;6.10;51.20;;;;;;5052579;28;20064;-77
2022/03/22 03:10:19;;;;;;;17.67;10.68;;;5.80;52.80;;;;;;5037810;28;20472;-76
2022/03/22 03:12:46;;;;;;;19.23;10.52;;;5.30;55.50;;;;;;5032743;28;20047;-75
2022/03/22 03:15:16;;;;;;;14.65;9.88;;;5.40;54.60;;;;;;5032391;28;20075;-76
2022/03/22 03:17:43;;;;;;;17.48;10.10;;;5.70;53.60;;;;;;5031859;28;20100;-77
2022/03/22 03:20:11;;;;;;;17.67;10.27;;;5.60;54.40;;;;;;5031591;28;20797;-76
2022/03/22 03:22:38;;;;;;;13.15;9.00;;;5.90;53.80;;;;;;5032489;28;20257;-77
2022/03/22 03:25:08;;;;;;;15.35;10.73;;;6.00;52.60;;;;;;5032181;28;20136;-76
2022/03/22 03:27:36;;;;;;;19.47;11.27;;;5.70;54.30;;;;;;5032607;28;20061;-77
2022/03/22 03:30:04;;;;;;;16.30;10.68;;;5.30;55.30;;;;;;5032239;28;20486;-76
2022/03/22 03:32:32;;;;;;;19.20;11.00;;;5.30;55.40;;;;;;5031954;28;20045;-77
2022/03/22 03:35:00;;;;;;;20.60;12.30;;;5.30;55.80;;;;;;5031863;28;20041;-74
2022/03/22 03:37:31;;;;;;;18.95;12.48;;;5.40;55.50;;;;;;5032205;28;20496;-75
2022/03/22 03:39:58;;;;;;;18.27;12.63;;;5.20;56.60;;;;;;5032081;28;20052;-75
2022/03/22 03:42:26;;;;;;;20.70;12.13;;;5.10;57.00;;;;;;5032254;28;20061;-75
2022/03/22 03:47:39;;;;;;;17.35;11.65;;;5.20;57.40;;;;;;5031857;28;20045;-77
2022/03/22 03:50:07;;;;;;;19.17;11.10;;;5.10;57.80;;;;;;5031898;28;20444;-76
2022/03/22 03:52:37;;;;;;;21.02;11.75;;;5.10;58.30;;;;;;5031682;28;20439;-75
2022/03/22 03:55:07;;;;;;;17.60;11.13;;;4.90;58.30;;;;;;5031935;28;20128;-76
2022/03/22 03:57:36;;;;;;;16.17;12.52;;;4.70;58.20;;;;;;5032094;28;20465;-77
2022/03/22 04:00:07;;;;;;;16.95;12.07;;;4.90;58.40;;;;;;5037646;28;20041;-77
2022/03/22 04:02:34;;;;;;;20.55;11.50;;;4.90;58.10;;;;;;5042008;28;20769;-75
2022/03/22 04:05:01;;;;;;;17.05;11.43;;;4.90;58.20;;;;;;5044285;28;20124;-75
2022/03/22 04:07:29;;;;;;;16.15;11.00;;;4.70;58.70;;;;;;5040526;28;20051;-75
2022/03/22 04:09:56;;;;;;;19.90;11.30;;;4.30;59.00;;;;;;5041959;28;20044;-75
2022/03/22 04:12:23;;;;;;;17.55;11.43;;;4.30;60.00;;;;;;5031512;28;20121;-77
2022/03/22 04:14:51;;;;;;;16.00;10.90;;;4.50;59.70;;;;;;5031194;28;20064;-74
2022/03/22 04:17:19;;;;;;;17.67;12.02;;;4.50;58.80;;;;;;5013709;28;20056;-78
2022/03/22 04:19:47;;;;;;;17.02;11.23;;;4.50;58.90;;;;;;5031149;28;20124;-76
2022/03/22 04:22:16;;;;;;;17.52;11.30;;;4.40;59.20;;;;;;5031708;28;20046;-76
2022/03/22 04:24:43;;;;;;;16.75;11.48;;;4.40;59.30;;;;;;5031631;28;20076;-75
2022/03/22 04:32:42;;;;;;;16.90;11.48;;;4.60;58.80;;;;;;5034785;28;20115;-76
2022/03/22 04:35:20;;;;;;;15.88;10.95;;;4.60;58.70;;;;;;5035592;28;20431;-76
2022/03/22 04:37:49;;;;;;;16.67;10.90;;;4.70;58.50;;;;;;5035143;28;20124;-77
2022/03/22 04:40:18;;;;;;;18.70;10.82;;;4.70;58.00;;;;;;5035542;28;20451;-77
2022/03/22 04:42:47;;;;;;;14.82;10.00;;;4.80;57.80;;;;;;5035842;28;20132;-77
2022/03/22 04:45:14;;;;;;;13.98;10.27;;;4.90;57.60;;;;;;5035326;28;20149;-76
2022/03/22 04:47:45;;;;;;;15.95;10.35;;;5.00;57.20;;;;;;5035588;28;20041;-77
2022/03/22 04:50:14;;;;;;;20.17;10.63;;;4.70;56.70;;;;;;5017627;28;20056;-76
2022/03/22 04:58:16;;;;;;;15.90;10.80;;;4.60;59.30;;;;;;5033738;28;20078;-76
2022/03/22 05:00:43;;;;;;;19.02;11.20;;;4.50;59.40;;;;;;5045762;28;20060;-76
2022/03/22 05:03:11;;;;;;;16.80;10.90;;;4.40;58.60;;;;;;5035045;28;20091;-75
2022/03/22 05:08:24;;;;;;;15.65;10.13;;;4.40;59.40;;;;;;5035030;28;20124;-79
2022/03/22 05:10:55;;;;;;;16.83;11.30;;;4.30;59.40;;;;;;5034976;28;20048;-75
2022/03/22 05:13:23;;;;;;;18.15;10.80;;;4.40;59.80;;;;;;5034750;28;20041;-76
2022/03/22 05:15:51;;;;;;;21.13;10.73;;;4.60;59.60;;;;;;5047937;28;20045;-75
2022/03/22 05:18:20;;;;;;;18.30;11.07;;;4.60;58.30;;;;;;5028159;28;20136;-76
2022/03/22 05:20:48;;;;;;;20.35;11.32;;;4.70;59.00;;;;;;5054280;28;20053;-77
2022/03/22 05:23:17;;;;;;;16.70;10.80;;;4.70;59.40;;;;;;5054460;28;20043;-78
2022/03/22 05:25:44;;;;;;;20.60;11.30;;;4.90;60.00;;;;;;5054248;28;20128;-76
2022/03/22 05:28:11;;;;;;;19.23;11.65;;;4.90;59.40;;;;;;5054311;28;20108;-76
2022/03/22 05:30:39;;;;;;;23.60;11.73;;;4.70;59.20;;;;;;5053853;28;20049;-76
2022/03/22 05:33:06;;;;;;;29.60;12.35;;;4.60;60.20;;;;;;5054549;28;20053;-76
2022/03/22 05:35:34;;;;;;;18.00;11.10;;;4.70;61.10;;;;;;5053964;28;20075;-76
2022/03/22 05:38:01;;;;;;;19.95;11.50;;;4.60;60.10;;;;;;5054171;28;20068;-76
2022/03/22 05:40:29;;;;;;;19.27;12.35;;;4.80;59.70;;;;;;5036251;28;20112;-77
2022/03/22 05:42:56;;;;;;;18.70;11.82;;;4.90;59.40;;;;;;5036830;28;20044;-74
2022/03/22 05:45:23;;;;;;;26.50;14.18;;;4.90;59.30;;;;;;5023610;28;20041;-75
2022/03/22 05:47:51;;;;;;;19.95;12.77;;;5.00;59.40;;;;;;5022743;28;20048;-77
2022/03/22 05:50:19;;;;;;;17.52;12.57;;;5.00;59.90;;;;;;5021456;28;20061;-76
2022/03/22 05:52:49;;;;;;;18.98;10.82;;;4.80;60.30;;;;;;5014093;28;20052;-77
2022/03/22 05:55:17;;;;;;;21.58;11.85;;;4.80;59.80;;;;;;4996615;28;20457;-75
2022/03/22 05:57:45;;;;;;;18.30;11.90;;;5.00;59.30;;;;;;5013774;28;20042;-76
2022/03/22 06:00:13;;;;;;;17.85;12.90;;;5.20;59.50;;;;;;5013683;28;20098;-75
2022/03/22 06:02:41;;;;;;;19.67;12.63;;;5.30;59.50;;;;;;5012740;28;20521;-76
2022/03/22 06:05:11;;;;;;;20.92;11.13;;;5.30;59.30;;;;;;5023199;28;20096;-75
2022/03/22 06:07:40;;;;;;;19.20;11.55;;;5.50;58.70;;;;;;5042030;28;20048;-80
2022/03/22 06:10:09;;;;;;;18.92;11.32;;;5.50;58.50;;;;;;5046280;28;20038;-78
2022/03/22 06:12:41;;;;;;;17.13;10.90;;;5.40;58.40;;;;;;5047161;28;20748;-82
2022/03/22 06:15:16;;;;;;;61.03;33.83;;;5.50;56.90;;;;;;5054469;28;20051;-85
2022/03/22 06:17:47;;;;;;;27.55;16.23;;;6.10;57.10;;;;;;5054850;28;20041;-84
2022/03/22 06:20:16;;;;;;;22.45;15.85;;;6.30;57.20;;;;;;5054025;28;20087;-81
2022/03/22 06:22:45;;;;;;;30.10;18.00;;;6.20;57.00;;;;;;5053964;28;20188;-86
2022/03/22 06:25:14;;;;;;;17.77;11.88;;;6.10;56.70;;;;;;5053327;28;20439;-78
2022/03/22 06:27:43;;;;;;;13.98;9.60;;;6.20;55.50;;;;;;5049134;28;20410;-79
2022/03/22 06:30:11;;;;;;;15.80;9.73;;;6.40;54.20;;;;;;5034565;28;20540;-79
2022/03/22 06:32:42;;;;;;;14.73;9.70;;;6.60;53.50;;;;;;5023678;28;20484;-81
2022/03/22 06:35:18;;;;;;;14.15;9.88;;;6.70;52.90;;;;;;5022069;28;20034;-78
2022/03/22 06:37:46;;;;;;;21.90;10.43;;;7.00;53.10;;;;;;5021300;28;20489;-79
2022/03/22 06:40:16;;;;;;;17.15;9.55;;;7.20;52.70;;;;;;5022691;28;20060;-80
2022/03/22 06:42:44;;;;;;;17.13;9.45;;;7.10;51.90;;;;;;5019034;28;20034;-80
2022/03/22 06:45:13;;;;;;;15.68;10.15;;;7.30;51.90;;;;;;5012831;28;20042;-78
2022/03/22 06:47:42;;;;;;;15.77;8.95;;;7.40;51.90;;;;;;4979374;28;20076;-78
2022/03/22 06:50:11;;;;;;;13.35;8.15;;;7.60;50.00;;;;;;4995653;28;20530;-79
2022/03/22 06:52:39;;;;;;;11.00;8.20;;;7.80;49.50;;;;;;5013417;28;20049;-77
2022/03/22 06:55:07;;;;;;;10.82;7.35;;;7.90;49.30;;;;;;5038011;28;20129;-78
2022/03/22 06:57:35;;;;;;;13.30;8.25;;;8.00;48.90;;;;;;5043492;28;20059;-78
2022/03/22 07:00:08;;;;;;;12.50;7.60;;;8.10;48.50;;;;;;5035582;28;20134;-77
2022/03/22 07:02:38;;;;;;;11.73;7.88;;;8.10;48.10;;;;;;5052604;28;20099;-76
2022/03/22 07:05:10;;;;;;;10.50;8.02;;;8.30;48.60;;;;;;5051732;28;20052;-75
2022/03/22 07:07:38;;;;;;;23.48;11.95;;;8.50;48.60;;;;;;5052385;28;20063;-78
2022/03/22 07:10:07;;;;;;;23.92;11.18;;;9.00;49.70;;;;;;5046855;28;20046;-77
2022/03/22 07:12:45;;;;;;;14.20;8.20;;;8.70;47.20;;;;;;5032354;28;20515;-77
2022/03/22 07:15:13;;;;;;;14.10;8.43;;;8.50;47.10;;;;;;5019588;28;20041;-79
2022/03/22 07:17:41;;;;;;;12.68;7.95;;;8.60;46.70;;;;;;5003500;28;20441;-79
2022/03/22 07:20:09;;;;;;;10.80;7.63;;;8.60;46.40;;;;;;5010725;28;20541;-78
2022/03/22 07:22:36;;;;;;;10.75;7.32;;;8.60;46.00;;;;;;5012204;28;20128;-79
2022/03/22 07:25:04;;;;;;;13.48;8.50;;;8.70;46.60;;;;;;5011848;28;20045;-77
2022/03/22 07:27:31;;;;;;;14.77;8.05;;;8.80;46.20;;;;;;5012452;28;20115;-77
2022/03/22 07:30:00;;;;;;;14.85;7.53;;;8.80;46.00;;;;;;5027215;28;20050;-75
2022/03/22 07:32:27;;;;;;;12.05;8.77;;;8.90;46.10;;;;;;5031770;28;20424;-75
2022/03/22 07:34:54;;;;;;;11.52;7.97;;;9.10;46.90;;;;;;5031831;28;20045;-79
2022/03/22 07:37:21;;;;;;;11.82;7.75;;;9.20;46.70;;;;;;5031950;28;20038;-75
2022/03/22 07:39:49;;;;;;;10.93;8.15;;;9.20;46.00;;;;;;5031848;28;20578;-77
2022/03/22 07:42:16;;;;;;;12.77;8.35;;;9.20;45.80;;;;;;5031294;28;20048;-77
2022/03/22 07:44:43;;;;;;;13.40;8.65;;;9.20;45.60;;;;;;5035596;28;20046;-76
2022/03/22 07:47:11;;;;;;;14.50;7.90;;;9.20;45.60;;;;;;5048896;28;20041;-79
2022/03/22 07:55:11;;;;;;;12.00;7.18;;;9.30;44.90;;;;;;5051458;28;20393;-79
2022/03/22 07:57:38;;;;;;;13.32;8.07;;;9.40;45.30;;;;;;5051470;28;20416;-79
2022/03/22 08:00:06;;;;;;;11.20;8.30;;;9.50;44.80;;;;;;5034900;28;20124;-79
2022/03/22 08:02:36;;;;;;;13.45;8.68;;;9.60;45.30;;;;;;5030915;28;20103;-78
2022/03/22 08:05:08;;;;;;;10.77;8.48;;;9.80;45.10;;;;;;5036649;28;20037;-78
2022/03/22 08:07:38;;;;;;;12.55;7.60;;;9.90;44.70;;;;;;5023785;28;20048;-81
2022/03/22 08:10:05;;;;;;;14.10;8.20;;;9.90;44.60;;;;;;5041347;28;20196;-81
2022/03/22 08:12:33;;;;;;;13.73;8.80;;;10.00;44.90;;;;;;5031517;28;20037;-79
2022/03/22 08:15:00;;;;;;;15.45;9.00;;;10.20;44.80;;;;;;5031010;28;20441;-76
2022/03/22 08:17:28;;;;;;;16.13;8.73;;;10.30;44.50;;;;;;5031425;28;20042;-79
2022/03/22 08:19:55;;;;;;;16.02;7.78;;;10.40;44.60;;;;;;5031159;28;20049;-76
2022/03/22 08:22:22;;;;;;;11.13;7.65;;;10.30;44.10;;;;;;5013634;28;20048;-76
2022/03/22 08:24:52;;;;;;;11.55;7.80;;;10.30;44.40;;;;;;5031062;28;20412;-77
2022/03/22 08:27:19;;;;;;;14.10;7.83;;;10.50;44.50;;;;;;5031607;28;20041;-79
2022/03/22 08:29:46;;;;;;;10.95;8.55;;;10.70;44.20;;;;;;5030842;28;20405;-76
2022/03/22 08:32:14;;;;;;;12.95;8.23;;;10.70;43.90;;;;;;5030894;28;20443;-78
2022/03/22 08:34:41;;;;;;;10.60;7.68;;;10.80;43.80;;;;;;5013428;28;20037;-80
2022/03/22 08:37:12;;;;;;;32.97;19.83;;;10.70;44.20;;;;;;5031120;28;20044;-81
2022/03/22 08:39:39;;;;;;;26.20;16.38;;;11.30;47.10;;;;;;5030938;28;20107;-82
2022/03/22 08:42:07;;;;;;;19.35;13.70;;;11.40;44.80;;;;;;5013293;28;20153;-77
2022/03/22 08:44:34;;;;;;;13.02;8.10;;;11.60;44.40;;;;;;5030117;28;20043;-79
2022/03/22 08:47:02;;;;;;;12.15;8.10;;;11.40;42.70;;;;;;5030776;28;20056;-76
2022/03/22 08:49:30;;;;;;;10.68;8.35;;;11.40;43.70;;;;;;5030735;28;20200;-77
2022/03/22 08:51:57;;;;;;;13.05;8.80;;;11.60;43.30;;;;;;5030608;28;20045;-77
2022/03/22 08:54:24;;;;;;;15.45;8.43;;;11.70;43.20;;;;;;5030440;28;20060;-75
2022/03/22 08:56:51;;;;;;;10.75;7.70;;;11.60;43.00;;;;;;5017557;28;20050;-77
2022/03/22 08:59:19;;;;;;;10.88;7.47;;;11.60;42.80;;;;;;5027494;28;20045;-77
2022/03/22 09:01:46;;;;;;;11.50;7.95;;;11.50;43.20;;;;;;5032555;28;20045;-76
2022/03/22 09:07:02;;;;;;;12.80;7.60;;;11.70;43.20;;;;;;5042226;28;20298;-76
2022/03/22 09:09:30;;;;;;;15.15;8.57;;;11.90;43.10;;;;;;5030979;28;20049;-75
2022/03/22 09:11:57;;;;;;;12.52;8.15;;;11.90;42.70;;;;;;5030048;28;20068;-78
2022/03/22 09:14:25;;;;;;;15.55;8.45;;;12.40;42.70;;;;;;5030226;28;20481;-76
2022/03/22 09:16:52;;;;;;;11.60;7.57;;;12.70;42.70;;;;;;5033713;28;20029;-78
2022/03/22 09:19:19;;;;;;;12.75;8.38;;;12.60;42.20;;;;;;5024217;28;20050;-75
2022/03/22 09:21:49;;;;;;;13.02;8.05;;;12.00;42.30;;;;;;5007190;28;20505;-79
2022/03/22 09:24:16;;;;;;;11.65;7.65;;;12.30;42.70;;;;;;5006429;28;20050;-77
2022/03/22 09:26:43;;;;;;;11.68;7.68;;;12.30;42.10;;;;;;5022677;28;20042;-76
2022/03/22 09:29:11;;;;;;;12.07;8.00;;;12.40;43.00;;;;;;5026413;28;20048;-79
2022/03/22 09:31:40;;;;;;;11.00;7.55;;;12.90;42.90;;;;;;5023526;28;20044;-78
2022/03/22 09:34:13;;;;;;;11.50;8.20;;;12.80;42.10;;;;;;5022606;28;20088;-77
2022/03/22 09:36:40;;;;;;;12.95;8.40;;;12.70;43.20;;;;;;5024390;28;20052;-80
2022/03/22 09:39:07;;;;;;;13.13;8.77;;;13.30;43.00;;;;;;5032137;28;20056;-78
2022/03/22 09:41:37;;;;;;;12.30;7.47;;;13.40;42.20;;;;;;5032404;28;20069;-74
2022/03/22 09:44:04;;;;;;;12.73;8.10;;;13.40;41.90;;;;;;5031712;28;20457;-76
2022/03/22 09:46:34;;;;;;;13.13;8.15;;;13.40;42.60;;;;;;5010693;28;20448;-77
2022/03/22 09:49:03;;;;;;;16.30;8.15;;;13.30;42.40;;;;;;5024308;28;20030;-80
2022/03/22 09:51:45;;;;;;;12.00;7.68;;;12.80;41.80;;;;;;5024178;28;20048;-78
2022/03/22 09:54:14;;;;;;;12.50;7.65;;;13.00;42.50;;;;;;5023767;28;20062;-76
2022/03/22 09:56:42;;;;;;;14.52;7.85;;;12.90;42.40;;;;;;5039045;28;20049;-76
2022/03/22 09:59:11;;;;;;;13.30;7.97;;;13.00;42.10;;;;;;5017945;28;20045;-77
2022/03/22 10:01:38;;;;;;;16.52;7.88;;;12.70;42.60;;;;;;5026407;28;20128;-76
2022/03/22 10:04:07;;;;;;;14.95;8.38;;;12.60;42.20;;;;;;5031699;28;20405;-76
2022/03/22 10:06:35;;;;;;;12.52;7.88;;;12.80;42.10;;;;;;5033648;28;20041;-76
2022/03/22 10:09:07;;;;;;;12.52;7.78;;;12.90;42.20;;;;;;5031448;28;20048;-76
2022/03/22 10:11:40;;;;;;;13.02;7.93;;;12.90;42.00;;;;;;5033956;28;20041;-77
2022/03/22 10:14:09;;;;;;;16.55;7.78;;;13.10;42.30;;;;;;5017585;28;20037;-76
2022/03/22 10:16:51;;;;;;;10.20;7.10;;;13.20;42.20;;;;;;5031158;28;20040;-77
2022/03/22 10:19:25;;;;;;;13.63;7.43;;;13.20;42.40;;;;;;5029886;28;20096;-79
2022/03/22 10:21:53;;;;;;;10.32;7.32;;;13.50;41.90;;;;;;5030954;28;20077;-78
2022/03/22 10:24:21;;;;;;;14.20;7.40;;;13.70;42.50;;;;;;5031177;28;20047;-78
2022/03/22 10:26:54;;;;;;;14.75;7.70;;;13.90;42.10;;;;;;5031134;28;20485;-81
2022/03/22 10:29:22;;;;;;;11.55;6.80;;;14.30;41.60;;;;;;5025982;28;20048;-77
2022/03/22 10:31:52;;;;;;;12.43;7.40;;;14.50;41.00;;;;;;5031310;28;20049;-79
2022/03/22 10:34:28;;;;;;;12.50;7.72;;;14.30;41.20;;;;;;5028634;28;20048;-78
2022/03/22 10:36:56;;;;;;;13.60;7.70;;;14.10;41.40;;;;;;5003407;28;20053;-79
2022/03/22 10:39:23;;;;;;;11.52;7.53;;;14.10;41.60;;;;;;5021880;28;20040;-77
2022/03/22 10:41:50;;;;;;;16.88;8.65;;;13.80;41.50;;;;;;5004405;28;20048;-78
2022/03/22 10:44:18;;;;;;;11.93;7.43;;;14.40;41.60;;;;;;5023107;28;20502;-76
2022/03/22 10:46:47;;;;;;;11.32;7.47;;;14.30;41.20;;;;;;5022084;28;20099;-78
2022/03/22 10:49:17;;;;;;;10.65;7.65;;;14.00;40.90;;;;;;5004014;28;20398;-78
2022/03/22 10:52:00;;;;;;;39.05;9.93;;;14.10;41.30;;;;;;5025777;28;20049;-81
2022/03/22 10:54:28;;;;;;;12.35;7.70;;;14.70;43.20;;;;;;5010446;28;20038;-82
2022/03/22 10:56:57;;;;;;;28.30;14.52;;;15.50;43.00;;;;;;5020631;28;20042;-81
2022/03/22 10:59:27;;;;;;;11.80;7.50;;;15.90;43.00;;;;;;5031991;28;20040;-77
2022/03/22 11:01:55;;;;;;;10.70;6.23;;;16.00;42.00;;;;;;5032020;28;20041;-79
2022/03/22 11:04:24;;;;;;;10.88;7.13;;;16.00;40.60;;;;;;5028795;28;20364;-79
2022/03/22 11:06:54;;;;;;;14.98;7.35;;;16.10;40.70;;;;;;5011342;28;20522;-77
2022/03/22 11:09:22;;;;;;;11.77;6.75;;;16.10;40.60;;;;;;5028513;28;20116;-79
2022/03/22 11:11:50;;;;;;;11.20;7.15;;;16.30;40.40;;;;;;5028994;28;20400;-75
2022/03/22 11:14:19;;;;;;;12.32;7.13;;;16.40;40.20;;;;;;5029218;28;20041;-80
2022/03/22 11:16:48;;;;;;;11.93;6.60;;;16.70;40.10;;;;;;5011593;28;20064;-79
2022/03/22 11:19:22;;;;;;;10.05;6.35;;;16.60;39.20;;;;;;5029253;28;20069;-80
2022/03/22 11:21:50;;;;;;;12.52;6.68;;;16.90;39.20;;;;;;5032132;28;20490;-78
2022/03/22 11:24:24;;;;;;;10.18;7.00;;;16.50;39.90;;;;;;5013996;28;20064;-75
2022/03/22 11:26:55;;;;;;;8.25;6.05;;;16.90;39.70;;;;;;5031162;28;20125;-75
2022/03/22 11:29:24;;;;;;;;;;;16.70;39.50;;;;;;5028027;28;20105;-78
2022/03/22 11:34:39;;;;;;;11.35;6.18;;;16.90;39.10;;;;;;5031666;28;20041;-79
2022/03/22 11:37:09;;;;;;;14.63;6.25;;;17.50;39.30;;;;;;5030714;28;20052;-81
2022/03/22 11:42:24;;;;;;;9.27;6.10;;;17.60;39.10;;;;;;5013784;28;20037;-80
2022/03/22 11:44:58;;;;;;;10.55;6.30;;;17.60;39.10;;;;;;5023577;28;20045;-79
2022/03/22 11:47:40;;;;;;;12.13;6.50;;;17.60;38.90;;;;;;5018650;28;20672;-79
2022/03/22 11:50:17;;;;;;;9.60;6.10;;;18.00;39.60;;;;;;5019985;28;20513;-81
2022/03/22 11:52:58;;;;;;;12.00;6.50;;;18.20;38.40;;;;;;5019423;28;20120;-80
2022/03/22 11:55:26;;;;;;;11.18;7.78;;;18.50;38.40;;;;;;5012940;28;20284;-80
2022/03/22 11:57:58;;;;;;;10.30;6.22;;;18.10;37.80;;;;;;5023893;28;20033;-77
2022/03/22 12:00:46;;;;;;;9.85;6.20;;;17.90;37.90;;;;;;5022585;28;20398;-77
2022/03/22 12:03:15;;;;;;;12.35;6.50;;;17.30;38.60;;;;;;5016899;28;20042;-80
2022/03/22 12:05:43;;;;;;;11.98;7.30;;;17.10;39.60;;;;;;5024449;28;20033;-79
2022/03/22 12:08:16;;;;;;;13.38;6.07;;;17.80;38.90;;;;;;5029545;28;20045;-77
2022/03/22 12:10:54;;;;;;;11.30;6.70;;;18.50;38.50;;;;;;5029471;28;20358;-77
2022/03/22 12:13:24;;;;;;;11.98;6.00;;;18.30;38.40;;;;;;5027670;28;20065;-81
2022/03/22 12:15:59;;;;;;;14.43;7.03;;;18.40;39.00;;;;;;5025839;28;20033;-78
2022/03/22 12:18:31;;;;;;;18.23;6.28;;;18.50;38.10;;;;;;5027929;28;20120;-78
2022/03/22 12:20:59;;;;;;;14.25;6.80;;;18.70;38.20;;;;;;5030646;28;20055;-78
2022/03/22 12:23:27;;;;;;;9.95;6.28;;;19.20;37.50;;;;;;5027669;28;20500;-77
2022/03/22 12:25:55;;;;;;;10.45;6.35;;;19.30;37.30;;;;;;5027475;28;20400;-74
2022/03/22 12:28:22;;;;;;;11.18;6.38;;;20.00;37.00;;;;;;5009537;28;20116;-81
2022/03/22 12:30:50;;;;;;;10.43;5.97;;;19.20;37.80;;;;;;5025380;28;20064;-84
2022/03/22 12:33:21;;;;;;;10.23;6.07;;;19.50;37.30;;;;;;5030374;28;20483;-77
2022/03/22 12:35:50;;;;;;;13.18;7.57;;;19.60;36.90;;;;;;5028499;28;20034;-79
2022/03/22 12:38:18;;;;;;;19.30;8.13;;;19.80;37.00;;;;;;5030833;28;20045;-76
2022/03/22 12:40:46;;;;;;;12.02;5.95;;;20.50;35.80;;;;;;5027450;28;20462;-78
2022/03/22 12:43:19;;;;;;;11.70;7.03;;;21.10;35.30;;;;;;5030384;28;20071;-77
2022/03/22 12:45:48;;;;;;;10.35;6.25;;;22.30;34.80;;;;;;5034271;28;20095;-76
2022/03/22 12:48:20;;;;;;;9.98;6.88;;;22.10;34.30;;;;;;5023651;28;20095;-76
2022/03/22 12:50:49;;;;;;;11.55;6.70;;;23.10;33.90;;;;;;5030531;28;20116;-77
2022/03/22 12:53:18;;;;;;;11.63;6.53;;;21.80;34.10;;;;;;5031731;28;20041;-82
2022/03/22 12:55:46;;;;;;;10.02;6.28;;;22.30;33.90;;;;;;5038226;28;20050;-78
2022/03/22 12:58:13;;;;;;;14.73;9.32;;;23.00;33.60;;;;;;5024391;28;20397;-81
2022/03/22 13:00:41;;;;;;;18.42;12.45;;;22.40;33.60;;;;;;5034552;28;20052;-84
2022/03/22 13:03:17;;;;;;;20.80;14.55;;;22.50;34.50;;;;;;5034792;28;20045;-82
2022/03/22 13:05:53;;;;;;;12.18;7.10;;;22.60;34.40;;;;;;5045597;28;20052;-75
2022/03/22 13:08:23;;;;;;;13.88;6.93;;;24.10;33.40;;;;;;5023642;28;20700;-79
2022/03/22 13:16:34;;;;;;;8.93;6.05;;;26.90;31.70;;;;;;5026491;28;20068;-74
2022/03/22 13:19:04;;;;;;;;;;;25.30;31.80;;;;;;5037289;28;20053;-78
2022/03/22 13:21:34;;;;;;;11.52;6.93;;;24.80;31.80;;;;;;5039576;28;19932;-79
2022/03/22 13:24:23;;;;;;;11.25;6.82;;;26.30;31.90;;;;;;5023144;28;20037;-77
2022/03/22 13:26:57;;;;;;;11.63;6.50;;;25.60;31.20;;;;;;5038742;28;20048;-78
2022/03/22 13:29:33;;;;;;;11.65;6.70;;;23.30;32.30;;;;;;5040326;28;20805;-78